sensor_id;sensor_type;location;lat;lon;timestamp;temperature;humidity
14008;DHT22;61651;45.508;12.232;2023-07-29T00:01:35;26.30;99.90
14008;DHT22;61651;45.508;12.232;2023-07-29T00:04:39;26.30;99.90
14008;DHT22;61651;45.508;12.232;2023-07-29T00:07:41;26.30;99.90
14008;DHT22;61651;45.508;12.232;2023-07-29T00:10:43;26.20;99.90
14008;DHT22;61651;45.508;12.232;2023-07-29T00:13:45;26.20;99.90
14008;DHT22;61651;45.508;12.232;2023-07-29T00:16:47;26.20;99.90
14008;DHT22;61651;45.508;12.232;2023-07-29T00:19:51;26.10;99.90
14008;DHT22;61651;45.508;12.232;2023-07-29T00:22:53;26.10;99.90
14008;DHT22;61651;45.508;12.232;2023-07-29T00:25:55;26.10;99.90
14008;DHT22;61651;45.508;12.232;2023-07-29T00:28:57;26.10;99.90
14008;DHT22;61651;45.508;12.232;2023-07-29T00:31:59;26.00;99.90
14008;DHT22;61651;45.508;12.232;2023-07-29T00:35:03;26.00;99.90
14008;DHT22;61651;45.508;12.232;2023-07-29T00:38:06;26.00;99.90
14008;DHT22;61651;45.508;12.232;2023-07-29T00:41:08;25.90;99.90
14008;DHT22;61651;45.508;12.232;2023-07-29T00:44:13;25.90;99.90
14008;DHT22;61651;45.508;12.232;2023-07-29T00:47:16;25.90;99.90
14008;DHT22;61651;45.508;12.232;2023-07-29T00:50:20;25.90;99.90
14008;DHT22;61651;45.508;12.232;2023-07-29T00:53:22;25.80;99.90
14008;DHT22;61651;45.508;12.232;2023-07-29T00:56:24;25.70;99.90
14008;DHT22;61651;45.508;12.232;2023-07-29T00:59:26;25.70;99.90
14008;DHT22;61651;45.508;12.232;2023-07-29T01:02:30;25.70;99.90
14008;DHT22;61651;45.508;12.232;2023-07-29T01:05:40;25.60;99.90
14008;DHT22;61651;45.508;12.232;2023-07-29T01:08:50;25.60;99.90
14008;DHT22;61651;45.508;12.232;2023-07-29T01:11:58;25.60;99.90
14008;DHT22;61651;45.508;12.232;2023-07-29T01:15:10;25.50;99.90
14008;DHT22;61651;45.508;12.232;2023-07-29T01:18:18;25.50;99.90
14008;DHT22;61651;45.508;12.232;2023-07-29T01:21:25;25.50;99.90
14008;DHT22;61651;45.508;12.232;2023-07-29T01:24:30;25.40;99.90
14008;DHT22;61651;45.508;12.232;2023-07-29T01:27:32;25.40;99.90
14008;DHT22;61651;45.508;12.232;2023-07-29T01:30:39;25.40;99.90
14008;DHT22;61651;45.508;12.232;2023-07-29T01:33:45;25.40;99.90
14008;DHT22;61651;45.508;12.232;2023-07-29T01:36:51;25.30;99.90
14008;DHT22;61651;45.508;12.232;2023-07-29T01:39:57;25.30;99.90
14008;DHT22;61651;45.508;12.232;2023-07-29T01:43:01;25.30;99.90
14008;DHT22;61651;45.508;12.232;2023-07-29T01:46:03;25.30;99.90
14008;DHT22;61651;45.508;12.232;2023-07-29T01:49:05;25.30;99.90
14008;DHT22;61651;45.508;12.232;2023-07-29T01:52:07;25.20;99.90
14008;DHT22;61651;45.508;12.232;2023-07-29T01:55:11;25.20;99.90
14008;DHT22;61651;45.508;12.232;2023-07-29T01:58:13;25.20;99.90
14008;DHT22;61651;45.508;12.232;2023-07-29T02:01:15;25.20;99.90
14008;DHT22;61651;45.508;12.232;2023-07-29T02:04:18;25.20;99.90
14008;DHT22;61651;45.508;12.232;2023-07-29T02:07:20;25.10;99.90
14008;DHT22;61651;45.508;12.232;2023-07-29T02:10:24;25.10;99.90
14008;DHT22;61651;45.508;12.232;2023-07-29T02:13:26;25.10;99.90
14008;DHT22;61651;45.508;12.232;2023-07-29T07:02:13;26.70;99.90
14008;DHT22;61651;45.508;12.232;2023-07-29T07:05:15;26.80;99.90
14008;DHT22;61651;45.508;12.232;2023-07-29T07:08:17;26.80;99.90
14008;DHT22;61651;45.508;12.232;2023-07-29T07:11:19;26.90;99.90
14008;DHT22;61651;45.508;12.232;2023-07-29T07:14:21;26.90;99.90
14008;DHT22;61651;45.508;12.232;2023-07-29T07:17:24;27.00;99.90
14008;DHT22;61651;45.508;12.232;2023-07-29T07:20:26;27.10;99.90
14008;DHT22;61651;45.508;12.232;2023-07-29T07:23:29;27.10;99.90
14008;DHT22;61651;45.508;12.232;2023-07-29T07:26:31;27.10;99.90
14008;DHT22;61651;45.508;12.232;2023-07-29T07:29:33;27.20;99.90
14008;DHT22;61651;45.508;12.232;2023-07-29T07:32:36;27.40;99.90
14008;DHT22;61651;45.508;12.232;2023-07-29T07:35:38;27.40;99.90
14008;DHT22;61651;45.508;12.232;2023-07-29T07:38:42;27.50;99.90
14008;DHT22;61651;45.508;12.232;2023-07-29T07:41:45;27.60;99.90
14008;DHT22;61651;45.508;12.232;2023-07-29T07:44:47;27.60;99.90
14008;DHT22;61651;45.508;12.232;2023-07-29T07:47:51;27.60;99.90
14008;DHT22;61651;45.508;12.232;2023-07-29T07:50:53;27.70;99.90
14008;DHT22;61651;45.508;12.232;2023-07-29T07:53:56;27.80;99.90
14008;DHT22;61651;45.508;12.232;2023-07-29T07:56:58;27.90;99.90
14008;DHT22;61651;45.508;12.232;2023-07-29T08:00:00;28.00;99.90
14008;DHT22;61651;45.508;12.232;2023-07-29T08:03:04;28.10;99.90
14008;DHT22;61651;45.508;12.232;2023-07-29T08:06:06;28.20;99.90
14008;DHT22;61651;45.508;12.232;2023-07-29T08:09:09;28.30;99.90
14008;DHT22;61651;45.508;12.232;2023-07-29T08:12:11;28.40;99.90
14008;DHT22;61651;45.508;12.232;2023-07-29T08:15:13;28.50;99.90
14008;DHT22;61651;45.508;12.232;2023-07-29T08:18:16;28.50;99.90
14008;DHT22;61651;45.508;12.232;2023-07-29T08:21:18;28.50;99.90
14008;DHT22;61651;45.508;12.232;2023-07-29T08:24:20;28.70;99.90
14008;DHT22;61651;45.508;12.232;2023-07-29T08:27:22;28.80;99.90
14008;DHT22;61651;45.508;12.232;2023-07-29T08:30:25;28.80;99.90
14008;DHT22;61651;45.508;12.232;2023-07-29T08:33:30;28.90;99.90
14008;DHT22;61651;45.508;12.232;2023-07-29T08:36:33;29.00;99.90
14008;DHT22;61651;45.508;12.232;2023-07-29T08:39:35;29.00;99.90
14008;DHT22;61651;45.508;12.232;2023-07-29T08:42:38;29.10;99.90
14008;DHT22;61651;45.508;12.232;2023-07-29T08:45:44;29.20;99.90
14008;DHT22;61651;45.508;12.232;2023-07-29T08:48:48;29.30;99.90
14008;DHT22;61651;45.508;12.232;2023-07-29T08:51:53;29.40;99.90
14008;DHT22;61651;45.508;12.232;2023-07-29T08:54:56;29.40;99.90
14008;DHT22;61651;45.508;12.232;2023-07-29T08:57:59;29.40;99.90
14008;DHT22;61651;45.508;12.232;2023-07-29T09:01:01;29.40;99.90
14008;DHT22;61651;45.508;12.232;2023-07-29T09:04:05;29.40;99.90
14008;DHT22;61651;45.508;12.232;2023-07-29T09:07:07;29.50;99.90
14008;DHT22;61651;45.508;12.232;2023-07-29T09:10:10;29.50;99.90
14008;DHT22;61651;45.508;12.232;2023-07-29T09:13:15;29.50;99.90
14008;DHT22;61651;45.508;12.232;2023-07-29T09:16:17;29.60;99.90
14008;DHT22;61651;45.508;12.232;2023-07-29T09:19:20;29.70;99.90
14008;DHT22;61651;45.508;12.232;2023-07-29T09:22:23;29.80;99.90
14008;DHT22;61651;45.508;12.232;2023-07-29T09:25:26;29.80;99.90
14008;DHT22;61651;45.508;12.232;2023-07-29T09:28:33;30.00;99.90
14008;DHT22;61651;45.508;12.232;2023-07-29T09:31:35;30.30;99.90
14008;DHT22;61651;45.508;12.232;2023-07-29T09:34:41;30.60;99.90
14008;DHT22;61651;45.508;12.232;2023-07-29T09:37:43;30.60;99.90
14008;DHT22;61651;45.508;12.232;2023-07-29T09:40:45;30.60;99.90
14008;DHT22;61651;45.508;12.232;2023-07-29T09:43:47;30.30;99.90
14008;DHT22;61651;45.508;12.232;2023-07-29T09:46:50;30.40;99.90
14008;DHT22;61651;45.508;12.232;2023-07-29T09:49:53;30.70;99.90
14008;DHT22;61651;45.508;12.232;2023-07-29T09:52:56;30.70;99.90
14008;DHT22;61651;45.508;12.232;2023-07-29T09:55:59;30.70;99.90
14008;DHT22;61651;45.508;12.232;2023-07-29T09:59:01;30.60;99.90
14008;DHT22;61651;45.508;12.232;2023-07-29T10:02:09;30.50;99.90
14008;DHT22;61651;45.508;12.232;2023-07-29T10:05:16;30.40;99.90
14008;DHT22;61651;45.508;12.232;2023-07-29T10:08:19;30.40;99.90
14008;DHT22;61651;45.508;12.232;2023-07-29T10:11:22;30.20;99.90
14008;DHT22;61651;45.508;12.232;2023-07-29T10:14:27;30.20;99.90
14008;DHT22;61651;45.508;12.232;2023-07-29T10:17:30;30.30;99.90
14008;DHT22;61651;45.508;12.232;2023-07-29T10:20:34;30.50;99.90
14008;DHT22;61651;45.508;12.232;2023-07-29T10:23:39;30.70;99.90
14008;DHT22;61651;45.508;12.232;2023-07-29T10:26:43;31.00;99.90
14008;DHT22;61651;45.508;12.232;2023-07-29T10:29:47;31.10;99.90
14008;DHT22;61651;45.508;12.232;2023-07-29T10:32:52;31.30;99.90
14008;DHT22;61651;45.508;12.232;2023-07-29T10:35:56;31.40;99.90
14008;DHT22;61651;45.508;12.232;2023-07-29T10:38:58;31.30;99.90
14008;DHT22;61651;45.508;12.232;2023-07-29T10:42:01;31.10;99.90
14008;DHT22;61651;45.508;12.232;2023-07-29T10:45:18;31.00;99.90
14008;DHT22;61651;45.508;12.232;2023-07-29T10:48:41;30.90;99.90
14008;DHT22;61651;45.508;12.232;2023-07-29T10:51:45;30.70;99.90
14008;DHT22;61651;45.508;12.232;2023-07-29T10:54:48;30.60;99.90
14008;DHT22;61651;45.508;12.232;2023-07-29T10:57:50;30.30;99.90
14008;DHT22;61651;45.508;12.232;2023-07-29T11:00:52;30.10;99.90
14008;DHT22;61651;45.508;12.232;2023-07-29T11:04:25;29.90;99.90
14008;DHT22;61651;45.508;12.232;2023-07-29T11:07:29;29.80;99.90
14008;DHT22;61651;45.508;12.232;2023-07-29T11:10:42;29.90;99.90
14008;DHT22;61651;45.508;12.232;2023-07-29T11:13:44;29.80;99.90
14008;DHT22;61651;45.508;12.232;2023-07-29T11:16:46;29.90;99.90
14008;DHT22;61651;45.508;12.232;2023-07-29T11:19:49;30.00;99.90
14008;DHT22;61651;45.508;12.232;2023-07-29T11:22:54;29.90;99.90
14008;DHT22;61651;45.508;12.232;2023-07-29T11:25:56;30.00;99.90
14008;DHT22;61651;45.508;12.232;2023-07-29T11:28:59;30.00;99.90
14008;DHT22;61651;45.508;12.232;2023-07-29T11:32:02;30.10;99.90
14008;DHT22;61651;45.508;12.232;2023-07-29T11:35:06;30.10;99.90
14008;DHT22;61651;45.508;12.232;2023-07-29T11:38:15;30.10;99.90
14008;DHT22;61651;45.508;12.232;2023-07-29T11:41:19;30.20;99.90
14008;DHT22;61651;45.508;12.232;2023-07-29T11:44:22;30.20;99.90
14008;DHT22;61651;45.508;12.232;2023-07-29T11:47:24;30.30;99.90
14008;DHT22;61651;45.508;12.232;2023-07-29T11:50:27;30.50;99.90
14008;DHT22;61651;45.508;12.232;2023-07-29T11:53:30;30.60;99.90
14008;DHT22;61651;45.508;12.232;2023-07-29T11:56:32;30.60;99.90
14008;DHT22;61651;45.508;12.232;2023-07-29T11:59:35;30.70;99.90
14008;DHT22;61651;45.508;12.232;2023-07-29T12:02:39;30.60;99.90
14008;DHT22;61651;45.508;12.232;2023-07-29T12:05:42;30.60;99.90
14008;DHT22;61651;45.508;12.232;2023-07-29T12:08:45;30.60;99.90
14008;DHT22;61651;45.508;12.232;2023-07-29T12:11:48;30.80;99.90
14008;DHT22;61651;45.508;12.232;2023-07-29T12:14:50;31.00;99.90
14008;DHT22;61651;45.508;12.232;2023-07-29T12:17:56;31.20;99.90
14008;DHT22;61651;45.508;12.232;2023-07-29T12:20:58;31.30;99.90
14008;DHT22;61651;45.508;12.232;2023-07-29T12:24:02;31.30;99.90
14008;DHT22;61651;45.508;12.232;2023-07-29T12:27:05;31.40;99.90
14008;DHT22;61651;45.508;12.232;2023-07-29T12:30:10;31.50;99.90
14008;DHT22;61651;45.508;12.232;2023-07-29T12:33:28;31.40;99.90
14008;DHT22;61651;45.508;12.232;2023-07-29T12:36:41;31.40;99.90
14008;DHT22;61651;45.508;12.232;2023-07-29T12:39:45;31.70;99.90
14008;DHT22;61651;45.508;12.232;2023-07-29T12:42:47;32.10;99.90
14008;DHT22;61651;45.508;12.232;2023-07-29T12:45:49;32.30;99.90
14008;DHT22;61651;45.508;12.232;2023-07-29T12:48:51;32.30;99.90
14008;DHT22;61651;45.508;12.232;2023-07-29T12:51:53;32.10;99.90
14008;DHT22;61651;45.508;12.232;2023-07-29T12:54:57;32.00;99.90
14008;DHT22;61651;45.508;12.232;2023-07-29T12:57:59;31.80;99.90
14008;DHT22;61651;45.508;12.232;2023-07-29T13:01:01;31.80;99.90
14008;DHT22;61651;45.508;12.232;2023-07-29T13:04:04;31.90;99.90
14008;DHT22;61651;45.508;12.232;2023-07-29T13:07:06;32.10;99.90
14008;DHT22;61651;45.508;12.232;2023-07-29T13:10:10;32.10;99.90
14008;DHT22;61651;45.508;12.232;2023-07-29T13:13:12;32.50;99.90
14008;DHT22;61651;45.508;12.232;2023-07-29T13:16:14;33.00;99.90
14008;DHT22;61651;45.508;12.232;2023-07-29T13:19:16;33.50;99.90
14008;DHT22;61651;45.508;12.232;2023-07-29T13:22:20;33.40;99.90
14008;DHT22;61651;45.508;12.232;2023-07-29T13:25:23;33.20;99.90
14008;DHT22;61651;45.508;12.232;2023-07-29T13:28:25;33.50;99.90
14008;DHT22;61651;45.508;12.232;2023-07-29T13:31:27;34.00;99.90
14008;DHT22;61651;45.508;12.232;2023-07-29T13:34:29;34.60;99.90
14008;DHT22;61651;45.508;12.232;2023-07-29T13:37:31;34.90;99.90
14008;DHT22;61651;45.508;12.232;2023-07-29T13:40:35;35.30;99.90
14008;DHT22;61651;45.508;12.232;2023-07-29T13:43:37;35.60;99.90
14008;DHT22;61651;45.508;12.232;2023-07-29T13:46:39;35.30;99.90
14008;DHT22;61651;45.508;12.232;2023-07-29T13:49:41;35.60;99.90
14008;DHT22;61651;45.508;12.232;2023-07-29T13:52:43;36.20;99.90
14008;DHT22;61651;45.508;12.232;2023-07-29T13:55:46;37.20;99.90
14008;DHT22;61651;45.508;12.232;2023-07-29T13:58:48;37.50;99.90
14008;DHT22;61651;45.508;12.232;2023-07-29T14:01:50;37.90;99.90
14008;DHT22;61651;45.508;12.232;2023-07-29T14:04:52;37.90;99.90
14008;DHT22;61651;45.508;12.232;2023-07-29T14:07:54;38.10;99.90
14008;DHT22;61651;45.508;12.232;2023-07-29T14:10:58;38.20;99.90
14008;DHT22;61651;45.508;12.232;2023-07-29T14:14:00;38.20;99.90
14008;DHT22;61651;45.508;12.232;2023-07-29T14:17:02;38.30;99.90
14008;DHT22;61651;45.508;12.232;2023-07-29T14:20:06;38.40;99.90
14008;DHT22;61651;45.508;12.232;2023-07-29T14:23:08;38.50;99.90
14008;DHT22;61651;45.508;12.232;2023-07-29T14:26:11;38.60;99.90
14008;DHT22;61651;45.508;12.232;2023-07-29T14:29:13;38.40;99.90
14008;DHT22;61651;45.508;12.232;2023-07-29T14:32:15;38.50;99.90
14008;DHT22;61651;45.508;12.232;2023-07-29T14:35:17;38.50;99.90
14008;DHT22;61651;45.508;12.232;2023-07-29T14:38:21;38.50;99.90
14008;DHT22;61651;45.508;12.232;2023-07-29T14:41:25;38.20;99.90
14008;DHT22;61651;45.508;12.232;2023-07-29T14:44:27;37.70;99.90
14008;DHT22;61651;45.508;12.232;2023-07-29T14:47:29;37.70;99.90
14008;DHT22;61651;45.508;12.232;2023-07-29T14:50:35;37.90;99.90
14008;DHT22;61651;45.508;12.232;2023-07-29T14:53:37;38.10;99.90
14008;DHT22;61651;45.508;12.232;2023-07-29T14:56:42;38.30;99.90
14008;DHT22;61651;45.508;12.232;2023-07-29T14:59:44;38.30;99.90
14008;DHT22;61651;45.508;12.232;2023-07-29T15:02:46;38.40;99.90
14008;DHT22;61651;45.508;12.232;2023-07-29T15:05:48;38.20;99.90
14008;DHT22;61651;45.508;12.232;2023-07-29T15:08:50;38.10;99.90
14008;DHT22;61651;45.508;12.232;2023-07-29T15:11:54;37.90;99.90
14008;DHT22;61651;45.508;12.232;2023-07-29T15:14:56;37.90;99.90
14008;DHT22;61651;45.508;12.232;2023-07-29T15:17:58;37.80;99.90
14008;DHT22;61651;45.508;12.232;2023-07-29T15:21:00;37.80;99.90
14008;DHT22;61651;45.508;12.232;2023-07-29T15:24:03;37.60;99.90
14008;DHT22;61651;45.508;12.232;2023-07-29T15:27:07;37.60;99.90
14008;DHT22;61651;45.508;12.232;2023-07-29T15:30:09;37.50;99.90
14008;DHT22;61651;45.508;12.232;2023-07-29T15:33:12;37.30;99.90
14008;DHT22;61651;45.508;12.232;2023-07-29T15:36:14;37.10;99.90
14008;DHT22;61651;45.508;12.232;2023-07-29T15:39:16;36.80;99.90
14008;DHT22;61651;45.508;12.232;2023-07-29T15:42:20;36.70;99.90
14008;DHT22;61651;45.508;12.232;2023-07-29T15:45:22;36.50;99.90
14008;DHT22;61651;45.508;12.232;2023-07-29T15:48:24;36.50;99.90
14008;DHT22;61651;45.508;12.232;2023-07-29T15:51:26;36.30;99.90
14008;DHT22;61651;45.508;12.232;2023-07-29T15:54:28;36.00;99.90
14008;DHT22;61651;45.508;12.232;2023-07-29T15:57:31;35.60;99.90
14008;DHT22;61651;45.508;12.232;2023-07-29T16:00:33;35.50;99.90
14008;DHT22;61651;45.508;12.232;2023-07-29T16:03:36;35.50;99.90
14008;DHT22;61651;45.508;12.232;2023-07-29T16:06:41;35.40;99.90
14008;DHT22;61651;45.508;12.232;2023-07-29T16:09:43;34.90;99.90
14008;DHT22;61651;45.508;12.232;2023-07-29T16:12:47;34.60;99.90
14008;DHT22;61651;45.508;12.232;2023-07-29T16:15:49;34.30;99.90
14008;DHT22;61651;45.508;12.232;2023-07-29T16:18:51;33.70;99.90
14008;DHT22;61651;45.508;12.232;2023-07-29T16:21:53;33.70;99.90
14008;DHT22;61651;45.508;12.232;2023-07-29T16:24:55;33.50;99.90
14008;DHT22;61651;45.508;12.232;2023-07-29T16:27:58;33.60;99.90
14008;DHT22;61651;45.508;12.232;2023-07-29T16:31:00;33.50;99.90
14008;DHT22;61651;45.508;12.232;2023-07-29T16:34:02;33.50;99.90
14008;DHT22;61651;45.508;12.232;2023-07-29T16:37:05;33.30;99.90
14008;DHT22;61651;45.508;12.232;2023-07-29T16:40:08;33.00;99.90
14008;DHT22;61651;45.508;12.232;2023-07-29T16:43:12;32.80;99.90
14008;DHT22;61651;45.508;12.232;2023-07-29T16:46:14;32.70;99.90
14008;DHT22;61651;45.508;12.232;2023-07-29T16:49:16;32.30;99.90
14008;DHT22;61651;45.508;12.232;2023-07-29T16:52:18;32.20;99.90
14008;DHT22;61651;45.508;12.232;2023-07-29T16:55:20;32.20;99.90
14008;DHT22;61651;45.508;12.232;2023-07-29T16:58:23;32.20;99.90
14008;DHT22;61651;45.508;12.232;2023-07-29T17:01:25;32.00;99.90
14008;DHT22;61651;45.508;12.232;2023-07-29T17:04:28;31.80;99.90
14008;DHT22;61651;45.508;12.232;2023-07-29T17:07:30;31.70;99.90
14008;DHT22;61651;45.508;12.232;2023-07-29T17:10:32;31.60;99.90
14008;DHT22;61651;45.508;12.232;2023-07-29T17:13:35;31.40;99.90
14008;DHT22;61651;45.508;12.232;2023-07-29T17:16:37;31.40;99.90
14008;DHT22;61651;45.508;12.232;2023-07-29T17:19:39;31.30;99.90
14008;DHT22;61651;45.508;12.232;2023-07-29T17:22:42;31.30;99.90
14008;DHT22;61651;45.508;12.232;2023-07-29T17:25:44;31.30;99.90
14008;DHT22;61651;45.508;12.232;2023-07-29T17:28:47;31.30;99.90
14008;DHT22;61651;45.508;12.232;2023-07-29T17:31:49;31.00;99.90
14008;DHT22;61651;45.508;12.232;2023-07-29T17:34:51;30.80;99.90
14008;DHT22;61651;45.508;12.232;2023-07-29T17:37:53;30.80;99.90
14008;DHT22;61651;45.508;12.232;2023-07-29T17:40:55;30.70;99.90
14008;DHT22;61651;45.508;12.232;2023-07-29T17:44:03;30.50;99.90
14008;DHT22;61651;45.508;12.232;2023-07-29T17:47:05;30.30;99.90
14008;DHT22;61651;45.508;12.232;2023-07-29T17:50:08;30.50;99.90
14008;DHT22;61651;45.508;12.232;2023-07-29T17:53:10;30.60;99.90
14008;DHT22;61651;45.508;12.232;2023-07-29T17:56:12;30.80;99.90
14008;DHT22;61651;45.508;12.232;2023-07-29T17:59:15;30.70;99.90
14008;DHT22;61651;45.508;12.232;2023-07-29T18:02:17;30.70;99.90
14008;DHT22;61651;45.508;12.232;2023-07-29T18:05:19;30.60;99.90
14008;DHT22;61651;45.508;12.232;2023-07-29T18:08:22;30.30;99.90
14008;DHT22;61651;45.508;12.232;2023-07-29T18:11:24;30.30;99.90
14008;DHT22;61651;45.508;12.232;2023-07-29T18:14:28;30.20;99.90
14008;DHT22;61651;45.508;12.232;2023-07-29T18:17:29;30.10;99.90
14008;DHT22;61651;45.508;12.232;2023-07-29T18:20:31;30.10;99.90
14008;DHT22;61651;45.508;12.232;2023-07-29T18:23:35;30.10;99.90
14008;DHT22;61651;45.508;12.232;2023-07-29T18:26:37;30.00;99.90
14008;DHT22;61651;45.508;12.232;2023-07-29T18:29:41;29.90;99.90
14008;DHT22;61651;45.508;12.232;2023-07-29T18:32:43;29.90;99.90
14008;DHT22;61651;45.508;12.232;2023-07-29T18:35:45;29.80;99.90
14008;DHT22;61651;45.508;12.232;2023-07-29T18:38:47;29.80;99.90
14008;DHT22;61651;45.508;12.232;2023-07-29T18:41:49;29.70;99.90
14008;DHT22;61651;45.508;12.232;2023-07-29T18:44:52;29.60;99.90
14008;DHT22;61651;45.508;12.232;2023-07-29T18:47:54;29.70;99.90
14008;DHT22;61651;45.508;12.232;2023-07-29T18:50:56;29.70;99.90
14008;DHT22;61651;45.508;12.232;2023-07-29T18:53:58;29.70;99.90
14008;DHT22;61651;45.508;12.232;2023-07-29T18:57:00;29.60;99.90
14008;DHT22;61651;45.508;12.232;2023-07-29T19:00:05;29.50;99.90
14008;DHT22;61651;45.508;12.232;2023-07-29T19:03:07;29.60;99.90
14008;DHT22;61651;45.508;12.232;2023-07-29T19:06:10;29.60;99.90
14008;DHT22;61651;45.508;12.232;2023-07-29T19:09:12;29.70;99.90
14008;DHT22;61651;45.508;12.232;2023-07-29T19:12:14;29.60;99.90
14008;DHT22;61651;45.508;12.232;2023-07-29T19:15:17;29.70;99.90
14008;DHT22;61651;45.508;12.232;2023-07-29T19:18:19;29.50;99.90
14008;DHT22;61651;45.508;12.232;2023-07-29T19:21:21;29.50;99.90
14008;DHT22;61651;45.508;12.232;2023-07-29T19:24:24;29.50;99.90
14008;DHT22;61651;45.508;12.232;2023-07-29T19:27:26;29.40;99.90
14008;DHT22;61651;45.508;12.232;2023-07-29T19:30:30;29.40;99.90
14008;DHT22;61651;45.508;12.232;2023-07-29T19:33:31;29.40;99.90
14008;DHT22;61651;45.508;12.232;2023-07-29T19:36:34;29.40;99.90
14008;DHT22;61651;45.508;12.232;2023-07-29T19:39:36;29.40;99.90
14008;DHT22;61651;45.508;12.232;2023-07-29T19:42:38;29.40;99.90
14008;DHT22;61651;45.508;12.232;2023-07-29T19:45:47;29.30;99.90
14008;DHT22;61651;45.508;12.232;2023-07-29T19:48:49;29.30;99.90
14008;DHT22;61651;45.508;12.232;2023-07-29T19:51:52;29.40;99.90
14008;DHT22;61651;45.508;12.232;2023-07-29T19:55:00;29.30;99.90
14008;DHT22;61651;45.508;12.232;2023-07-29T19:58:03;29.30;99.90
14008;DHT22;61651;45.508;12.232;2023-07-29T20:01:06;29.30;99.90
14008;DHT22;61651;45.508;12.232;2023-07-29T20:04:09;29.30;99.90
14008;DHT22;61651;45.508;12.232;2023-07-29T20:07:11;29.30;99.90
14008;DHT22;61651;45.508;12.232;2023-07-29T20:10:13;29.30;99.90
14008;DHT22;61651;45.508;12.232;2023-07-29T20:13:15;29.20;99.90
14008;DHT22;61651;45.508;12.232;2023-07-29T20:16:19;29.20;99.90
14008;DHT22;61651;45.508;12.232;2023-07-29T20:19:21;29.10;99.90
14008;DHT22;61651;45.508;12.232;2023-07-29T20:22:23;29.10;99.90
14008;DHT22;61651;45.508;12.232;2023-07-29T20:25:25;29.10;99.90
14008;DHT22;61651;45.508;12.232;2023-07-29T20:28:27;29.10;99.90
14008;DHT22;61651;45.508;12.232;2023-07-29T20:31:31;29.10;99.90
14008;DHT22;61651;45.508;12.232;2023-07-29T20:34:33;29.10;99.90
14008;DHT22;61651;45.508;12.232;2023-07-29T20:37:35;29.00;99.90
14008;DHT22;61651;45.508;12.232;2023-07-29T20:40:37;29.10;99.90
14008;DHT22;61651;45.508;12.232;2023-07-29T20:43:39;29.10;99.90
14008;DHT22;61651;45.508;12.232;2023-07-29T20:46:42;29.10;99.90
14008;DHT22;61651;45.508;12.232;2023-07-29T20:49:44;29.00;99.90
14008;DHT22;61651;45.508;12.232;2023-07-29T20:52:46;29.00;99.90
14008;DHT22;61651;45.508;12.232;2023-07-29T20:55:48;28.80;99.90
14008;DHT22;61651;45.508;12.232;2023-07-29T20:58:50;28.90;99.90
14008;DHT22;61651;45.508;12.232;2023-07-29T21:01:54;28.90;99.90
14008;DHT22;61651;45.508;12.232;2023-07-29T21:04:56;28.90;99.90
14008;DHT22;61651;45.508;12.232;2023-07-29T21:07:58;28.60;99.90
14008;DHT22;61651;45.508;12.232;2023-07-29T21:11:00;28.60;99.90
14008;DHT22;61651;45.508;12.232;2023-07-29T21:14:02;28.70;99.90
14008;DHT22;61651;45.508;12.232;2023-07-29T21:17:05;28.80;99.90
14008;DHT22;61651;45.508;12.232;2023-07-29T21:20:08;28.80;99.90
14008;DHT22;61651;45.508;12.232;2023-07-29T21:23:12;28.80;99.90
14008;DHT22;61651;45.508;12.232;2023-07-29T21:26:14;28.80;99.90
14008;DHT22;61651;45.508;12.232;2023-07-29T21:29:16;28.80;99.90
14008;DHT22;61651;45.508;12.232;2023-07-29T21:32:19;28.80;99.90
14008;DHT22;61651;45.508;12.232;2023-07-29T21:35:21;28.80;99.90
14008;DHT22;61651;45.508;12.232;2023-07-29T21:38:23;28.80;99.90
14008;DHT22;61651;45.508;12.232;2023-07-29T21:41:25;28.80;99.90
14008;DHT22;61651;45.508;12.232;2023-07-29T21:44:28;28.80;99.90
14008;DHT22;61651;45.508;12.232;2023-07-29T21:47:32;28.90;99.90
14008;DHT22;61651;45.508;12.232;2023-07-29T21:50:34;28.90;99.90
14008;DHT22;61651;45.508;12.232;2023-07-29T21:53:36;28.90;99.90
14008;DHT22;61651;45.508;12.232;2023-07-29T21:56:38;28.80;99.90
14008;DHT22;61651;45.508;12.232;2023-07-29T21:59:40;28.80;99.90
14008;DHT22;61651;45.508;12.232;2023-07-29T22:02:43;28.80;99.90
14008;DHT22;61651;45.508;12.232;2023-07-29T22:05:45;28.80;99.90
14008;DHT22;61651;45.508;12.232;2023-07-29T22:08:47;28.80;99.90
14008;DHT22;61651;45.508;12.232;2023-07-29T22:11:50;28.70;99.90
14008;DHT22;61651;45.508;12.232;2023-07-29T22:14:52;28.70;99.90
14008;DHT22;61651;45.508;12.232;2023-07-29T22:17:55;28.60;99.90
14008;DHT22;61651;45.508;12.232;2023-07-29T22:20:58;28.60;99.90
14008;DHT22;61651;45.508;12.232;2023-07-29T22:24:01;28.60;99.90
14008;DHT22;61651;45.508;12.232;2023-07-29T22:27:03;28.60;99.90
